Time;durP1;ratioP1;P1;durP2;ratioP2;P2;SDS_P1;SDS_P2;PMS_P1;PMS_P2;Temp;Humidity;BMP_temperature;BMP_pressure;BME280_temperature;BME280_humidity;BME280_pressure;Samples;Min_cycle;Max_cycle;Signal;HPM_P1;HPM_P2
2021/08/27 00:01:29;;;;;;;6.97;2.72;;;;;;;14.84;71.98;101681.78;5031822;28;20056;-60
2021/08/27 00:03:57;;;;;;;9.35;2.40;;;;;;;14.87;71.75;101689.47;5030221;28;20128;-60
2021/08/27 00:06:24;;;;;;;8.02;2.40;;;;;;;14.87;71.72;101686.72;5032178;28;20045;-60
2021/08/27 00:08:52;;;;;;;9.38;2.85;;;;;;;14.87;71.61;101692.19;5031761;28;20499;-60
2021/08/27 00:11:20;;;;;;;6.65;2.28;;;;;;;14.82;71.97;101692.22;5032207;28;20049;-60
2021/08/27 00:13:48;;;;;;;6.75;2.33;;;;;;;14.79;72.08;101698.25;5031814;28;20045;-60
2021/08/27 00:16:15;;;;;;;6.82;2.30;;;;;;;14.78;72.33;101693.03;5030099;28;20037;-60
2021/08/27 00:18:43;;;;;;;7.40;2.40;;;;;;;14.76;72.50;101692.47;5031041;28;20038;-60
2021/08/27 00:21:11;;;;;;;6.93;2.35;;;;;;;14.73;72.42;101693.03;5030238;28;20061;-60
2021/08/27 00:23:38;;;;;;;8.32;2.35;;;;;;;14.70;72.60;101688.94;5032090;28;20048;-61
2021/08/27 00:26:06;;;;;;;9.05;2.55;;;;;;;14.69;72.77;101692.75;5031875;28;20138;-60
2021/08/27 00:28:33;;;;;;;8.45;2.88;;;;;;;14.70;72.76;101688.94;5035381;28;20037;-60
2021/08/27 00:31:01;;;;;;;5.47;2.30;;;;;;;14.72;72.69;101686.75;5035617;28;20056;-60
2021/08/27 00:33:29;;;;;;;10.90;2.80;;;;;;;14.70;72.75;101686.19;5035919;28;20042;-60
2021/08/27 00:36:03;;;;;;;10.07;2.75;;;;;;;14.67;73.08;101676.59;5035165;28;20049;-60
2021/08/27 00:38:31;;;;;;;6.90;2.22;;;;;;;14.64;73.10;101673.56;5035845;28;20679;-60
2021/08/27 00:40:58;;;;;;;9.48;2.72;;;;;;;14.63;73.12;101678.22;5035419;28;20064;-59
2021/08/27 00:43:26;;;;;;;8.77;2.47;;;;;;;14.62;73.28;101667.50;5033687;28;20042;-61
2021/08/27 00:45:54;;;;;;;6.55;2.55;;;;;;;14.63;73.15;101666.44;5035160;28;20124;-60
2021/08/27 00:48:21;;;;;;;8.50;2.28;;;;;;;14.60;73.25;101669.69;5035203;28;20482;-60
2021/08/27 00:50:49;;;;;;;6.82;2.63;;;;;;;14.57;73.43;101668.34;5035131;28;20052;-59
2021/08/27 00:53:17;;;;;;;7.70;2.30;;;;;;;14.52;73.60;101670.22;5034699;28;20037;-60
2021/08/27 00:55:46;;;;;;;7.25;2.53;;;;;;;14.49;73.88;101671.59;5033990;28;20571;-60
2021/08/27 00:58:16;;;;;;;7.75;2.10;;;;;;;14.46;74.06;101666.69;5034864;28;20748;-60
2021/08/27 01:00:45;;;;;;;6.55;2.45;;;;;;;14.46;73.93;101666.69;5034724;28;20420;-61
2021/08/27 01:03:32;;;;;;;7.75;2.70;;;;;;;14.46;74.08;101667.50;5034698;28;20504;-60
2021/08/27 01:06:42;;;;;;;7.63;2.83;;;;;;;14.47;73.79;101666.38;5033904;28;20045;-60
2021/08/27 01:09:48;;;;;;;6.47;2.47;;;;;;;14.48;73.89;101669.97;5031403;28;20041;-60
2021/08/27 01:12:48;;;;;;;9.95;2.80;;;;;;;14.46;73.94;101672.16;5032410;28;20393;-60
2021/08/27 01:15:20;;;;;;;7.88;2.58;;;;;;;14.46;74.20;101678.47;5033961;28;20081;-60
2021/08/27 01:17:57;;;;;;;6.78;2.53;;;;;;;14.47;74.14;101671.06;5033579;28;20408;-60
2021/08/27 01:20:57;;;;;;;6.50;2.78;;;;;;;14.48;74.18;101675.47;5033287;28;20057;-60
2021/08/27 01:23:41;;;;;;;7.95;2.53;;;;;;;14.48;74.02;101668.03;5032855;28;20037;-60
2021/08/27 01:26:11;;;;;;;6.38;2.10;;;;;;;14.49;74.04;101674.34;5033004;28;20057;-60
2021/08/27 01:28:42;;;;;;;6.05;2.20;;;;;;;14.49;74.38;101666.94;5032163;28;20059;-59
2021/08/27 01:31:35;;;;;;;9.50;2.17;;;;;;;14.53;74.06;101671.88;5032581;28;20042;-61
2021/08/27 01:34:21;;;;;;;9.00;2.70;;;;;;;14.56;73.83;101671.38;5032382;28;20045;-60
2021/08/27 01:36:50;;;;;;;6.53;1.98;;;;;;;14.56;73.91;101671.38;5032895;28;20059;-60
2021/08/27 01:39:18;;;;;;;7.07;2.35;;;;;;;14.56;73.82;101677.66;5033408;28;20029;-60
2021/08/27 01:41:50;;;;;;;7.90;2.85;;;;;;;14.55;73.95;101677.94;5030145;28;20068;-61
2021/08/27 01:44:21;;;;;;;8.75;2.20;;;;;;;14.55;74.17;101669.72;5034495;28;20042;-60
2021/08/27 01:46:50;;;;;;;10.25;2.30;;;;;;;14.52;73.87;101670.22;5031495;28;20136;-61
2021/08/27 01:49:18;;;;;;;9.43;2.42;;;;;;;14.51;74.02;101663.13;5033094;28;20060;-60
2021/08/27 01:51:47;;;;;;;7.00;2.20;;;;;;;14.49;74.22;101666.13;5032711;28;20495;-60
2021/08/27 01:54:18;;;;;;;5.88;2.10;;;;;;;14.49;74.34;101666.94;5034222;28;20068;-60
2021/08/27 01:56:46;;;;;;;8.68;2.03;;;;;;;14.48;74.09;101657.06;5033702;28;20050;-60
2021/08/27 01:59:14;;;;;;;6.60;2.22;;;;;;;14.48;73.99;101676.28;5034244;28;20380;-60
2021/08/27 02:01:42;;;;;;;8.88;2.03;;;;;;;14.47;74.08;101679.28;5029601;28;20037;-60
2021/08/27 02:04:13;;;;;;;11.02;2.50;;;;;;;14.43;74.19;101668.03;5014793;28;20048;-60
2021/08/27 02:06:42;;;;;;;6.75;2.05;;;;;;;14.42;74.58;101677.34;5033766;28;20053;-60
2021/08/27 02:09:11;;;;;;;8.38;2.28;;;;;;;14.42;74.19;101677.34;5030739;28;20135;-61
2021/08/27 02:11:39;;;;;;;8.13;2.85;;;;;;;14.42;74.74;101677.34;5031594;28;20056;-61
2021/08/27 02:14:07;;;;;;;7.00;2.10;;;;;;;14.41;74.63;101678.47;5032509;28;20037;-60
2021/08/27 02:16:35;;;;;;;8.35;2.03;;;;;;;14.39;74.65;101679.84;5031260;28;20496;-60
2021/08/27 02:19:04;;;;;;;10.07;2.30;;;;;;;14.35;74.73;101682.28;5033439;28;20046;-60
2021/08/27 02:21:35;;;;;;;3.80;1.90;;;;;;;14.35;75.08;101676.78;5031190;28;20050;-60
2021/08/27 02:24:05;;;;;;;6.97;2.15;;;;;;;14.34;75.25;101677.09;5031096;28;20041;-61
2021/08/27 02:26:36;;;;;;;4.93;2.40;;;;;;;14.36;75.22;101686.69;5032209;28;20504;-61
2021/08/27 02:29:04;;;;;;;6.68;2.20;;;;;;;14.37;75.11;101685.56;5032487;28;20120;-61
2021/08/27 02:31:32;;;;;;;8.48;2.40;;;;;;;14.34;75.17;101686.13;5030369;28;20052;-60
2021/08/27 02:34:00;;;;;;;8.63;2.53;;;;;;;14.32;75.17;101688.31;5033384;28;20038;-61
2021/08/27 02:36:28;;;;;;;9.65;2.45;;;;;;;14.30;75.46;101689.69;5032016;28;20488;-60
2021/08/27 02:38:56;;;;;;;7.47;1.92;;;;;;;14.29;75.62;101694.34;5033067;28;20045;-60
2021/08/27 02:41:24;;;;;;;7.32;2.13;;;;;;;14.28;75.71;101687.19;5032075;28;20052;-60
2021/08/27 02:43:51;;;;;;;12.25;2.60;;;;;;;14.28;75.83;101692.69;5031033;28;20037;-62
2021/08/27 02:46:19;;;;;;;7.50;2.28;;;;;;;14.29;76.10;101688.88;5031084;28;20522;-60
2021/08/27 02:48:47;;;;;;;9.02;2.58;;;;;;;14.30;75.91;101695.97;5033115;28;20079;-60
2021/08/27 02:51:17;;;;;;;5.47;2.00;;;;;;;14.32;75.98;101693.78;5031752;28;20054;-60
2021/08/27 02:53:46;;;;;;;8.98;2.55;;;;;;;14.33;75.97;101689.94;5030980;28;20049;-60
2021/08/27 02:56:18;;;;;;;7.85;2.10;;;;;;;14.34;75.67;101690.78;5030815;28;20048;-60
2021/08/27 02:58:49;;;;;;;5.70;2.47;;;;;;;14.31;75.86;101692.16;5031764;28;20118;-61
2021/08/27 03:01:35;;;;;;;8.02;2.08;;;;;;;14.30;75.94;101685.00;5030951;28;20044;-61
2021/08/27 03:04:08;;;;;;;8.25;2.50;;;;;;;14.27;76.32;101685.56;5030984;28;20037;-62
2021/08/27 03:06:51;;;;;;;9.55;2.15;;;;;;;14.22;76.56;101689.13;5031216;28;20057;-60
2021/08/27 03:09:19;;;;;;;8.43;2.20;;;;;;;14.19;76.79;101695.16;5030921;28;20045;-60
2021/08/27 03:11:58;;;;;;;8.80;2.28;;;;;;;14.16;76.94;101697.59;5030429;28;20099;-60
2021/08/27 03:14:31;;;;;;;9.13;2.80;;;;;;;14.15;76.91;101693.22;5031701;28;20052;-60
2021/08/27 03:17:03;;;;;;;8.15;2.28;;;;;;;14.14;77.08;101694.28;5029907;28;20073;-61
2021/08/27 03:19:54;;;;;;;7.60;2.20;;;;;;;14.12;76.99;101699.22;5032403;28;20033;-61
2021/08/27 03:22:24;;;;;;;8.13;2.30;;;;;;;14.10;77.09;101696.78;5026003;28;20056;-61
2021/08/27 03:25:02;;;;;;;7.57;2.55;;;;;;;14.06;77.34;101695.66;5031792;28;20047;-61
2021/08/27 03:27:39;;;;;;;13.02;2.60;;;;;;;14.06;77.64;101695.66;5032517;28;20040;-60
2021/08/27 03:30:14;;;;;;;8.73;2.83;;;;;;;14.05;77.46;101688.53;5031408;28;20053;-60
2021/08/27 03:32:47;;;;;;;7.70;2.20;;;;;;;14.05;77.51;101692.09;5032150;28;20053;-59
2021/08/27 03:35:17;;;;;;;7.07;2.25;;;;;;;14.05;77.50;101694.03;5032302;28;20496;-60
2021/08/27 03:37:47;;;;;;;4.28;2.20;;;;;;;14.03;77.54;101697.03;5031987;28;20041;-59
2021/08/27 03:40:15;;;;;;;6.68;2.30;;;;;;;14.01;77.57;101693.72;5032238;28;20496;-61
2021/08/27 03:42:43;;;;;;;7.65;2.20;;;;;;;14.02;77.84;101695.38;5030577;28;20091;-59
2021/08/27 03:45:12;;;;;;;8.93;2.53;;;;;;;14.02;77.82;101695.38;5032256;28;20381;-60
2021/08/27 03:47:40;;;;;;;7.57;2.53;;;;;;;14.01;78.06;101701.13;5030831;28;20446;-60
2021/08/27 03:50:09;;;;;;;7.65;2.30;;;;;;;14.01;78.31;101693.72;5030210;28;20048;-61
2021/08/27 03:52:37;;;;;;;6.78;2.13;;;;;;;13.98;78.32;101693.44;5032023;28;20463;-61
2021/08/27 03:55:06;;;;;;;9.82;2.80;;;;;;;13.97;78.65;101698.09;5031003;28;20045;-60
2021/08/27 03:57:36;;;;;;;8.32;2.65;;;;;;;13.92;79.04;101695.34;5030876;28;20117;-60
2021/08/27 04:00:06;;;;;;;10.23;2.72;;;;;;;13.90;79.31;101692.03;5032230;28;20403;-61
2021/08/27 04:02:39;;;;;;;10.52;2.80;;;;;;;13.92;79.50;101698.06;5033570;28;20045;-60
2021/08/27 04:05:12;;;;;;;7.70;2.50;;;;;;;13.93;79.47;101690.69;5034940;28;20052;-58
2021/08/27 04:07:41;;;;;;;10.00;2.72;;;;;;;13.93;79.64;101693.44;5035744;28;20048;-60
2021/08/27 04:10:10;;;;;;;12.18;2.88;;;;;;;13.93;79.60;101694.25;5036263;28;20053;-60
2021/08/27 04:12:58;;;;;;;10.45;2.70;;;;;;;13.92;80.12;101694.50;5035634;28;20059;-60
2021/08/27 04:15:45;;;;;;;9.52;2.50;;;;;;;13.91;80.18;101698.34;5035456;28;20060;-60
2021/08/27 04:18:30;;;;;;;11.70;2.58;;;;;;;13.89;80.50;101695.88;5034501;28;20045;-60
2021/08/27 04:21:18;;;;;;;9.48;2.88;;;;;;;13.91;80.36;101692.88;5035249;28;20049;-58
2021/08/27 04:24:06;;;;;;;8.07;2.67;;;;;;;13.93;80.55;101687.97;5035575;28;20057;-57
2021/08/27 04:26:53;;;;;;;8.50;2.80;;;;;;;13.92;80.79;101694.50;5033347;28;20511;-57
2021/08/27 04:29:41;;;;;;;7.05;2.97;;;;;;;13.91;80.92;101693.69;5035366;28;20061;-59
2021/08/27 04:32:09;;;;;;;7.95;2.65;;;;;;;13.92;80.97;101698.06;5035669;28;20381;-59
2021/08/27 04:34:36;;;;;;;8.82;2.90;;;;;;;13.94;81.03;101698.63;5034254;28;20080;-60
2021/08/27 04:37:04;;;;;;;11.35;2.75;;;;;;;13.97;80.83;101695.34;5035600;28;20591;-60
2021/08/27 04:39:31;;;;;;;10.88;2.67;;;;;;;13.98;81.18;101696.19;5035810;28;20045;-60
2021/08/27 04:42:00;;;;;;;11.82;3.35;;;;;;;13.98;80.93;101691.53;5035811;28;20046;-60
2021/08/27 04:44:28;;;;;;;9.95;2.85;;;;;;;13.99;81.12;101686.88;5034346;28;20053;-60
2021/08/27 04:46:55;;;;;;;7.47;2.55;;;;;;;13.99;81.24;101690.41;5036038;28;20045;-60
2021/08/27 04:49:23;;;;;;;7.20;2.55;;;;;;;14.00;81.25;101692.09;5034961;28;20037;-60
2021/08/27 04:51:52;;;;;;;8.20;2.30;;;;;;;14.01;81.40;101692.91;5031267;28;20103;-59
2021/08/27 04:54:20;;;;;;;7.97;2.40;;;;;;;14.01;81.55;101704.69;5035736;28;20045;-60
2021/08/27 04:56:48;;;;;;;10.63;3.08;;;;;;;14.02;81.59;101695.38;5035606;28;20052;-60
2021/08/27 04:59:15;;;;;;;9.18;2.60;;;;;;;14.02;81.67;101703.59;5035718;28;20041;-60
2021/08/27 05:01:43;;;;;;;14.27;2.88;;;;;;;13.98;81.86;101705.22;5035723;28;20049;-60
2021/08/27 05:04:11;;;;;;;10.48;2.65;;;;;;;13.96;82.12;101712.88;5033801;28;20037;-54
2021/08/27 05:06:39;;;;;;;10.68;2.95;;;;;;;13.95;82.27;101708.50;5027013;28;20053;-61
2021/08/27 05:09:07;;;;;;;12.85;3.33;;;;;;;13.94;82.27;101715.06;5035000;28;20076;-60
2021/08/27 05:11:35;;;;;;;9.27;2.63;;;;;;;13.90;82.48;101719.44;5035000;28;20041;-61
2021/08/27 05:14:02;;;;;;;8.90;2.70;;;;;;;13.89;82.98;101723.28;5034584;28;20045;-60
2021/08/27 05:16:30;;;;;;;7.53;2.88;;;;;;;13.90;83.02;101724.09;5034916;28;20463;-60
2021/08/27 05:18:58;;;;;;;10.30;2.65;;;;;;;13.93;82.99;101723.56;5034155;28;20071;-60
2021/08/27 05:21:25;;;;;;;10.68;2.67;;;;;;;13.95;83.12;101727.69;5032923;28;20060;-59
2021/08/27 05:23:53;;;;;;;10.63;2.67;;;;;;;13.96;83.02;101726.59;5035937;28;20049;-60
2021/08/27 05:26:21;;;;;;;12.95;3.03;;;;;;;13.97;83.14;101724.66;5029805;28;20037;-61
2021/08/27 05:28:49;;;;;;;9.73;2.90;;;;;;;13.95;83.11;101727.69;5034563;28;20053;-60
2021/08/27 05:31:17;;;;;;;9.77;3.28;;;;;;;13.96;83.50;101728.50;5032720;28;20404;-56
2021/08/27 05:33:46;;;;;;;11.13;2.88;;;;;;;13.97;83.53;101725.47;5025421;28;20566;-57
2021/08/27 05:36:13;;;;;;;6.20;2.53;;;;;;;13.99;83.94;101733.44;5034620;28;20391;-60
2021/08/27 05:38:41;;;;;;;9.32;3.03;;;;;;;14.01;83.44;101732.09;5033457;28;20073;-60
2021/08/27 05:41:08;;;;;;;12.15;3.47;;;;;;;14.02;83.77;101731.00;5033966;28;20049;-60
2021/08/27 05:43:36;;;;;;;9.57;3.15;;;;;;;14.04;83.65;101728.78;5034339;28;20055;-62
2021/08/27 05:46:04;;;;;;;12.20;2.90;;;;;;;14.06;83.83;101723.88;5031635;28;20041;-59
2021/08/27 05:48:32;;;;;;;9.93;2.85;;;;;;;14.11;83.69;101731.28;5033472;28;20038;-60
2021/08/27 05:50:59;;;;;;;8.13;2.85;;;;;;;14.12;83.62;101737.59;5033847;28;20038;-59
2021/08/27 05:53:27;;;;;;;7.07;2.85;;;;;;;14.13;83.59;101733.78;5033761;28;20045;-59
2021/08/27 05:55:54;;;;;;;5.55;2.17;;;;;;;14.19;83.95;101732.69;5034271;28;20373;-61
2021/08/27 05:58:22;;;;;;;8.50;3.47;;;;;;;14.31;83.63;101732.44;5034199;28;20112;-58
2021/08/27 06:00:50;;;;;;;9.55;2.80;;;;;;;14.35;82.54;101737.09;5019602;28;20076;-61
2021/08/27 06:03:18;;;;;;;6.50;2.50;;;;;;;14.34;82.74;101731.91;5015944;28;20496;-60
2021/08/27 06:05:46;;;;;;;10.27;2.88;;;;;;;14.31;82.63;101736.03;5032402;28;20033;-59
2021/08/27 06:08:13;;;;;;;7.50;2.80;;;;;;;14.28;83.01;101736.53;5033451;28;20551;-59
2021/08/27 06:10:41;;;;;;;8.77;2.50;;;;;;;14.29;82.81;101735.47;5033401;28;20412;-61
2021/08/27 06:13:08;;;;;;;9.65;2.70;;;;;;;14.25;82.68;101734.34;5032632;28;20056;-61
2021/08/27 06:15:36;;;;;;;11.00;2.70;;;;;;;14.25;83.15;101739.84;5032090;28;20033;-61
2021/08/27 06:18:04;;;;;;;6.60;2.65;;;;;;;14.24;83.02;101733.53;5033096;28;20094;-61
2021/08/27 06:20:32;;;;;;;13.18;3.40;;;;;;;14.25;83.14;101743.38;5031559;28;20046;-60
2021/08/27 06:23:00;;;;;;;8.63;2.85;;;;;;;14.27;83.34;101743.13;5032509;28;20038;-60
2021/08/27 06:25:27;;;;;;;8.00;2.80;;;;;;;14.28;83.31;101739.28;5033030;28;20045;-61
2021/08/27 06:27:55;;;;;;;7.72;2.60;;;;;;;14.29;83.48;101746.44;5033278;28;20072;-61
2021/08/27 06:30:23;;;;;;;6.97;2.92;;;;;;;14.31;83.68;101741.50;5033007;28;20061;-61
2021/08/27 06:32:50;;;;;;;6.88;2.47;;;;;;;14.30;83.91;101742.59;5032894;28;20045;-61
2021/08/27 06:35:18;;;;;;;12.48;3.08;;;;;;;14.34;83.96;101746.44;5033309;28;20111;-61
2021/08/27 06:40:32;;;;;;;11.20;3.60;;;;;;;14.42;84.05;101748.63;5023797;28;20500;-58
2021/08/27 06:43:00;;;;;;;7.45;2.95;;;;;;;14.44;84.18;101743.72;5032144;28;20179;-57
2021/08/27 06:45:27;;;;;;;7.05;2.55;;;;;;;14.47;84.36;101750.56;5032137;28;20058;-57
2021/08/27 06:47:55;;;;;;;8.02;2.78;;;;;;;14.52;83.95;101741.53;5032610;28;20053;-61
2021/08/27 06:50:24;;;;;;;6.97;2.67;;;;;;;14.54;83.69;101744.88;5032262;28;20037;-59
2021/08/27 06:52:56;;;;;;;10.30;3.03;;;;;;;14.57;83.42;101744.31;5031978;28;20090;-59
2021/08/27 06:55:24;;;;;;;9.35;2.33;;;;;;;14.60;82.45;101743.75;5032521;28;20030;-60
2021/08/27 06:57:51;;;;;;;6.85;2.58;;;;;;;14.65;82.65;101735.56;5032689;28;20040;-59
2021/08/27 07:00:19;;;;;;;8.93;3.00;;;;;;;14.67;83.13;101734.19;5020581;28;20512;-59
2021/08/27 07:02:47;;;;;;;10.32;3.38;;;;;;;14.72;82.37;101746.25;5032849;28;20087;-59
2021/08/27 07:05:15;;;;;;;8.25;2.65;;;;;;;14.76;82.29;101750.91;5031189;28;20048;-60
2021/08/27 07:07:43;;;;;;;7.63;2.40;;;;;;;14.79;81.93;101747.63;5032410;28;20117;-55
2021/08/27 07:10:11;;;;;;;11.27;2.97;;;;;;;14.83;81.62;101747.91;5030741;28;20041;-60
2021/08/27 07:12:39;;;;;;;6.32;2.50;;;;;;;14.87;81.42;101747.09;5030197;28;20046;-61
2021/08/27 07:15:08;;;;;;;13.02;2.90;;;;;;;14.89;80.19;101753.13;5029829;28;20050;-60
2021/08/27 07:17:35;;;;;;;5.60;2.50;;;;;;;14.93;80.24;101749.81;5030815;28;20042;-60
2021/08/27 07:20:04;;;;;;;9.25;3.00;;;;;;;14.95;79.69;101745.72;5031101;28;20053;-61
2021/08/27 07:22:32;;;;;;;7.28;2.67;;;;;;;14.97;79.92;101753.69;5031843;28;20053;-60
2021/08/27 07:25:00;;;;;;;7.05;2.65;;;;;;;14.99;79.98;101751.47;5032697;28;20462;-61
2021/08/27 07:27:28;;;;;;;9.07;2.60;;;;;;;15.01;79.99;101761.09;5031794;28;20047;-60
2021/08/27 07:29:55;;;;;;;9.75;2.70;;;;;;;15.03;79.95;101758.03;5029972;28;20053;-62
2021/08/27 07:32:24;;;;;;;9.75;2.53;;;;;;;15.04;79.84;101765.19;5032107;28;20389;-60
2021/08/27 07:34:51;;;;;;;8.57;2.20;;;;;;;15.05;79.90;101756.66;5031168;28;20048;-60
2021/08/27 07:37:19;;;;;;;8.38;2.50;;;;;;;15.07;79.17;101753.66;5029344;28;20045;-62
2021/08/27 07:39:47;;;;;;;7.75;2.50;;;;;;;15.11;78.54;101761.06;5031737;28;20033;-62
2021/08/27 07:42:14;;;;;;;8.02;2.55;;;;;;;15.15;78.87;101755.84;5030832;28;20389;-61
2021/08/27 07:44:42;;;;;;;6.95;2.55;;;;;;;15.18;78.31;101749.81;5031595;28;20049;-60
2021/08/27 07:47:09;;;;;;;5.93;2.00;;;;;;;15.21;78.29;101742.94;5031980;28;20053;-60
2021/08/27 07:49:37;;;;;;;6.20;2.42;;;;;;;15.27;78.34;101756.41;5030390;28;20134;-61
2021/08/27 07:52:05;;;;;;;8.70;2.72;;;;;;;15.31;77.85;101757.47;5031580;28;20045;-61
2021/08/27 07:54:32;;;;;;;6.68;2.30;;;;;;;15.34;78.62;101762.44;5030720;28;20137;-61
2021/08/27 07:57:00;;;;;;;9.65;2.85;;;;;;;15.41;77.02;101758.56;5030364;28;20056;-61
2021/08/27 07:59:28;;;;;;;8.57;2.38;;;;;;;15.46;77.66;101761.28;5030830;28;20056;-60
2021/08/27 08:01:55;;;;;;;5.60;2.17;;;;;;;15.51;78.04;101755.78;5031626;28;20042;-61
2021/08/27 08:04:23;;;;;;;5.55;2.33;;;;;;;15.62;77.19;101765.66;5030851;28;20129;-61
2021/08/27 08:06:51;;;;;;;10.05;2.50;;;;;;;15.71;77.02;101753.03;5031051;28;20130;-62
2021/08/27 08:09:21;;;;;;;7.18;2.22;;;;;;;15.75;76.49;101759.63;5030924;28;20124;-62
2021/08/27 08:11:48;;;;;;;9.70;2.70;;;;;;;15.75;76.64;101753.28;5030325;28;20076;-62
2021/08/27 08:14:16;;;;;;;12.05;2.80;;;;;;;15.75;75.53;101769.75;5030617;28;20037;-62
2021/08/27 08:16:44;;;;;;;10.40;2.67;;;;;;;15.73;75.98;101770.06;5031758;28;20046;-61
2021/08/27 08:19:12;;;;;;;8.82;2.83;;;;;;;15.73;76.24;101772.81;5031668;28;20033;-62
2021/08/27 08:21:39;;;;;;;6.55;2.22;;;;;;;15.73;76.28;101775.56;5031355;28;20416;-61
2021/08/27 08:24:09;;;;;;;9.93;2.70;;;;;;;15.74;76.31;101773.63;5031417;28;20970;-61
2021/08/27 08:26:37;;;;;;;4.32;2.10;;;;;;;15.74;76.10;101773.63;5031326;28;20050;-60
2021/08/27 08:29:06;;;;;;;6.35;2.35;;;;;;;15.74;75.95;101768.13;5030237;28;20080;-60
2021/08/27 08:31:34;;;;;;;9.57;2.80;;;;;;;15.72;76.04;101771.16;5031014;28;20045;-61
2021/08/27 08:34:01;;;;;;;11.38;3.50;;;;;;;15.71;76.77;101780.50;5030034;28;20103;-62
2021/08/27 08:36:29;;;;;;;7.10;2.33;;;;;;;15.69;76.77;101771.69;5029675;28;20095;-62
2021/08/27 08:38:58;;;;;;;6.90;2.50;;;;;;;15.67;76.81;101771.13;5030913;28;20136;-62
2021/08/27 08:41:25;;;;;;;9.68;2.55;;;;;;;15.68;76.94;101802.16;5029579;28;20061;-61
2021/08/27 08:43:53;;;;;;;9.10;2.63;;;;;;;15.66;76.56;101776.94;5030419;28;20389;-61
2021/08/27 08:46:22;;;;;;;5.80;2.20;;;;;;;15.67;76.78;101778.56;5030776;28;20037;-62
2021/08/27 08:48:51;;;;;;;7.70;2.78;;;;;;;15.71;77.01;101771.44;5032551;28;20384;-62
2021/08/27 08:51:23;;;;;;;8.57;2.50;;;;;;;15.75;76.79;101778.00;5033644;28;20544;-62
2021/08/27 08:53:51;;;;;;;11.80;3.33;;;;;;;15.74;76.54;101785.44;5032996;28;20045;-60
2021/08/27 08:56:20;;;;;;;8.32;2.88;;;;;;;15.72;76.37;101781.31;5033829;28;20076;-61
2021/08/27 08:58:48;;;;;;;11.00;3.13;;;;;;;15.69;76.62;101788.16;5034310;28;20136;-61
2021/08/27 09:01:18;;;;;;;10.23;2.85;;;;;;;15.69;75.88;101771.69;5034722;28;20042;-61
2021/08/27 09:03:47;;;;;;;13.52;3.30;;;;;;;15.70;76.58;101780.78;5034558;28;20045;-62
2021/08/27 09:06:15;;;;;;;12.82;2.78;;;;;;;15.65;77.36;101795.31;5033674;28;20068;-62
2021/08/27 09:08:47;;;;;;;6.97;2.40;;;;;;;15.55;77.08;101787.09;5033441;28;20052;-62
2021/08/27 09:11:20;;;;;;;6.85;2.40;;;;;;;15.44;80.28;101808.28;5032329;28;20073;-63
2021/08/27 09:13:53;;;;;;;8.50;2.42;;;;;;;15.36;82.28;101788.78;5034526;28;20415;-63
2021/08/27 09:16:24;;;;;;;10.13;3.00;;;;;;;15.33;83.77;101790.16;5033847;28;20042;-62
2021/08/27 09:18:52;;;;;;;10.60;2.95;;;;;;;15.31;85.08;101781.38;5033189;28;20045;-62
2021/08/27 09:21:47;;;;;;;8.63;2.85;;;;;;;15.35;85.41;101787.97;5033161;28;20064;-62
2021/08/27 09:24:25;;;;;;;7.95;2.60;;;;;;;15.37;84.98;101788.50;5034148;28;20148;-62
2021/08/27 09:26:56;;;;;;;9.18;2.88;;;;;;;15.41;86.30;101797.81;5032130;28;21020;-62
2021/08/27 09:29:40;;;;;;;11.00;3.55;;;;;;;15.36;84.73;101797.03;5033549;28;20408;-64
2021/08/27 09:32:22;;;;;;;7.75;2.95;;;;;;;15.36;86.44;101799.75;5033081;28;20041;-63
2021/08/27 09:35:09;;;;;;;9.45;2.55;;;;;;;15.37;85.35;101795.91;5033202;28;20172;-62
2021/08/27 09:37:39;;;;;;;9.07;3.38;;;;;;;15.28;86.51;101796.47;5033892;28;20056;-63
2021/08/27 09:40:09;;;;;;;8.23;3.00;;;;;;;15.19;86.55;101800.88;5030848;28;20075;-63
2021/08/27 09:42:41;;;;;;;11.88;3.47;;;;;;;15.12;86.40;101789.34;5034137;28;20045;-62
2021/08/27 09:45:10;;;;;;;11.82;2.80;;;;;;;15.17;87.15;101781.09;5034111;28;20053;-63
2021/08/27 09:47:39;;;;;;;11.02;3.53;;;;;;;15.20;86.86;101791.56;5033392;28;20507;-63
2021/08/27 09:50:34;;;;;;;11.65;3.47;;;;;;;15.27;87.27;101783.00;5031375;28;20408;-63
2021/08/27 09:53:04;;;;;;;7.65;3.10;;;;;;;15.32;86.88;101778.34;5032134;28;20060;-63
2021/08/27 09:55:33;;;;;;;11.65;3.10;;;;;;;15.44;87.24;101780.81;5030289;28;20045;-62
2021/08/27 09:58:07;;;;;;;8.55;2.92;;;;;;;15.55;86.69;101781.59;5031289;28;20044;-63
2021/08/27 10:00:40;;;;;;;7.75;2.60;;;;;;;15.60;81.66;101789.00;5031005;28;20034;-63
2021/08/27 10:03:22;;;;;;;9.55;2.78;;;;;;;15.63;80.42;101772.78;5033528;28;20088;-62
2021/08/27 10:05:52;;;;;;;6.85;2.22;;;;;;;15.74;82.43;101766.19;5031366;28;20128;-62
2021/08/27 10:08:25;;;;;;;6.93;2.55;;;;;;;15.86;79.71;101762.31;5034502;28;20041;-62
2021/08/27 10:10:57;;;;;;;6.63;2.65;;;;;;;15.93;79.32;101771.09;5032545;28;20038;-63
2021/08/27 10:13:25;;;;;;;7.28;2.92;;;;;;;16.02;78.98;101758.41;5034876;28;20611;-58
2021/08/27 10:15:53;;;;;;;7.82;3.05;;;;;;;16.11;77.74;101762.19;5034242;28;20048;-60
2021/08/27 10:18:21;;;;;;;7.78;2.90;;;;;;;16.24;77.48;101762.72;5029968;28;20124;-62
2021/08/27 10:20:49;;;;;;;11.18;3.05;;;;;;;16.30;76.59;101759.63;5029774;28;20148;-62
2021/08/27 10:23:18;;;;;;;8.20;3.28;;;;;;;16.30;76.26;101754.13;5028808;28;20059;-62
2021/08/27 10:25:46;;;;;;;8.55;3.38;;;;;;;16.27;75.72;101764.88;5033015;28;20132;-61
2021/08/27 10:28:14;;;;;;;7.85;2.92;;;;;;;16.25;75.31;101750.59;5032211;28;20381;-63
2021/08/27 10:30:50;;;;;;;8.52;2.80;;;;;;;16.29;76.65;101757.19;5031673;28;20041;-62
2021/08/27 10:33:20;;;;;;;8.75;2.92;;;;;;;16.37;76.40;101749.13;4332196;28;9999967;-61
2021/08/27 10:35:52;;;;;;;8.43;3.53;;;;;;;16.48;77.66;101741.66;5026347;28;20056;-63
2021/08/27 10:38:45;;;;;;;7.85;3.00;;;;;;;16.59;75.53;101747.88;5027075;28;20037;-61
2021/08/27 10:41:19;;;;;;;9.70;3.05;;;;;;;16.68;75.75;101746.19;5029881;28;20041;-61
2021/08/27 10:43:49;;;;;;;11.50;3.25;;;;;;;16.65;74.34;101744.00;5029638;28;20040;-61
2021/08/27 10:46:17;;;;;;;9.23;3.47;;;;;;;16.63;74.58;101746.22;5028919;28;20522;-62
2021/08/27 10:48:53;;;;;;;10.68;3.42;;;;;;;16.66;75.63;101745.63;5027790;28;20129;-62
2021/08/27 10:51:35;;;;;;;7.55;3.05;;;;;;;16.72;73.72;101738.19;5027272;28;20056;-61
2021/08/27 10:54:05;;;;;;;8.20;2.85;;;;;;;16.73;73.43;101724.13;5018828;28;20044;-62
2021/08/27 10:56:44;;;;;;;8.88;3.22;;;;;;;16.77;74.40;101740.91;5030381;28;20041;-62
2021/08/27 10:59:14;;;;;;;9.20;2.88;;;;;;;16.74;73.54;101724.94;5018464;28;20033;-62
2021/08/27 11:01:46;;;;;;;9.80;3.22;;;;;;;16.69;72.13;101722.22;5030487;28;20037;-62
2021/08/27 11:04:30;;;;;;;8.57;3.17;;;;;;;16.64;72.73;101736.03;5017196;28;20037;-61
2021/08/27 11:07:05;;;;;;;11.95;3.20;;;;;;;16.57;73.60;101764.72;5015308;28;20130;-62
2021/08/27 11:09:34;;;;;;;9.68;3.25;;;;;;;16.48;76.07;101733.41;5011333;28;20046;-60
2021/08/27 11:12:15;;;;;;;9.75;3.05;;;;;;;16.42;76.24;101734.53;5011196;28;20038;-62
2021/08/27 11:14:47;;;;;;;8.63;3.10;;;;;;;16.38;76.69;101736.22;5024787;28;20053;-62
2021/08/27 11:17:15;;;;;;;9.35;3.00;;;;;;;16.34;75.89;101754.41;5028638;28;20071;-62
2021/08/27 11:19:56;;;;;;;12.60;3.40;;;;;;;16.25;79.33;101761.59;5010661;28;20042;-64
2021/08/27 11:22:29;;;;;;;9.13;3.10;;;;;;;16.01;83.49;101772.44;5015650;28;20068;-62
2021/08/27 11:25:07;;;;;;;10.68;3.08;;;;;;;15.79;85.20;101767.28;5027771;28;20435;-63
2021/08/27 11:27:36;;;;;;;6.53;2.63;;;;;;;15.71;85.54;101769.50;5017999;28;20042;-63
2021/08/27 11:30:29;;;;;;;8.27;3.05;;;;;;;15.64;85.72;101763.47;5031429;28;20043;-64
2021/08/27 11:33:00;;;;;;;12.52;3.15;;;;;;;15.64;86.91;101752.47;5028207;28;20404;-62
2021/08/27 11:35:35;;;;;;;7.90;2.72;;;;;;;15.63;86.43;101756.31;5028361;28;20045;-64
2021/08/27 11:38:08;;;;;;;7.97;2.90;;;;;;;15.64;86.30;101751.66;5027448;28;20041;-63
2021/08/27 11:40:37;;;;;;;9.20;4.10;;;;;;;15.67;86.78;101751.91;5023979;28;20042;-63
2021/08/27 11:43:04;;;;;;;10.80;3.60;;;;;;;15.75;87.56;101743.13;5028468;28;20408;-62
2021/08/27 11:45:33;;;;;;;9.13;3.67;;;;;;;15.90;88.38;101742.25;5028003;28;20038;-63